sensor_id;sensor_type;location;lat;lon;timestamp;temperature;humidity
10417;DHT22;62605;49.432;8.680;2023-04-25T00:00:37;9.10;99.90
10417;DHT22;62605;49.432;8.680;2023-04-25T00:03:04;9.10;99.90
10417;DHT22;62605;49.432;8.680;2023-04-25T00:05:32;9.20;99.90
10417;DHT22;62605;49.432;8.680;2023-04-25T00:07:59;9.10;99.90
10417;DHT22;62605;49.432;8.680;2023-04-25T00:10:27;9.10;99.90
10417;DHT22;62605;49.432;8.680;2023-04-25T00:12:54;9.10;99.90
10417;DHT22;62605;49.432;8.680;2023-04-25T00:15:23;9.10;99.90
10417;DHT22;62605;49.432;8.680;2023-04-25T00:17:50;9.10;99.90
10417;DHT22;62605;49.432;8.680;2023-04-25T00:20:18;9.10;99.90
10417;DHT22;62605;49.432;8.680;2023-04-25T00:22:45;9.00;99.90
10417;DHT22;62605;49.432;8.680;2023-04-25T00:25:13;9.00;99.90
10417;DHT22;62605;49.432;8.680;2023-04-25T00:27:41;9.00;99.90
10417;DHT22;62605;49.432;8.680;2023-04-25T00:30:09;9.00;99.90
10417;DHT22;62605;49.432;8.680;2023-04-25T00:32:36;9.00;99.90
10417;DHT22;62605;49.432;8.680;2023-04-25T00:35:04;9.00;99.90
10417;DHT22;62605;49.432;8.680;2023-04-25T00:37:31;9.00;99.90
10417;DHT22;62605;49.432;8.680;2023-04-25T00:39:58;8.90;99.90
10417;DHT22;62605;49.432;8.680;2023-04-25T00:42:25;8.90;99.90
10417;DHT22;62605;49.432;8.680;2023-04-25T00:44:54;8.90;99.90
10417;DHT22;62605;49.432;8.680;2023-04-25T00:47:22;9.00;99.90
10417;DHT22;62605;49.432;8.680;2023-04-25T00:49:50;9.00;99.90
10417;DHT22;62605;49.432;8.680;2023-04-25T00:52:19;9.00;99.90
10417;DHT22;62605;49.432;8.680;2023-04-25T00:54:46;8.90;99.90
10417;DHT22;62605;49.432;8.680;2023-04-25T00:57:13;9.00;99.90
10417;DHT22;62605;49.432;8.680;2023-04-25T00:59:45;8.90;99.90
10417;DHT22;62605;49.432;8.680;2023-04-25T01:02:13;8.90;99.90
10417;DHT22;62605;49.432;8.680;2023-04-25T01:04:40;8.80;99.90
10417;DHT22;62605;49.432;8.680;2023-04-25T01:07:08;8.80;99.90
10417;DHT22;62605;49.432;8.680;2023-04-25T01:09:35;8.70;99.90
10417;DHT22;62605;49.432;8.680;2023-04-25T01:12:03;8.70;99.90
10417;DHT22;62605;49.432;8.680;2023-04-25T01:14:30;8.70;99.90
10417;DHT22;62605;49.432;8.680;2023-04-25T01:16:57;8.70;99.90
10417;DHT22;62605;49.432;8.680;2023-04-25T01:19:26;8.60;99.90
10417;DHT22;62605;49.432;8.680;2023-04-25T01:21:55;8.60;99.90
10417;DHT22;62605;49.432;8.680;2023-04-25T01:24:22;8.60;99.90
10417;DHT22;62605;49.432;8.680;2023-04-25T01:26:49;8.60;99.90
10417;DHT22;62605;49.432;8.680;2023-04-25T01:29:16;8.60;99.90
10417;DHT22;62605;49.432;8.680;2023-04-25T01:31:44;8.70;99.90
10417;DHT22;62605;49.432;8.680;2023-04-25T01:34:11;8.60;99.90
10417;DHT22;62605;49.432;8.680;2023-04-25T01:36:38;8.60;99.90
10417;DHT22;62605;49.432;8.680;2023-04-25T01:39:07;8.60;99.90
10417;DHT22;62605;49.432;8.680;2023-04-25T01:41:34;8.60;99.90
10417;DHT22;62605;49.432;8.680;2023-04-25T01:44:02;8.60;99.90
10417;DHT22;62605;49.432;8.680;2023-04-25T01:46:29;8.60;99.90
10417;DHT22;62605;49.432;8.680;2023-04-25T01:48:56;8.60;99.90
10417;DHT22;62605;49.432;8.680;2023-04-25T01:51:23;8.70;99.90
10417;DHT22;62605;49.432;8.680;2023-04-25T01:53:50;8.60;99.90
10417;DHT22;62605;49.432;8.680;2023-04-25T01:56:19;8.70;99.90
10417;DHT22;62605;49.432;8.680;2023-04-25T01:58:46;8.60;99.90
10417;DHT22;62605;49.432;8.680;2023-04-25T02:01:13;8.60;99.90
10417;DHT22;62605;49.432;8.680;2023-04-25T02:03:40;8.70;99.90
10417;DHT22;62605;49.432;8.680;2023-04-25T02:06:07;8.60;99.90
10417;DHT22;62605;49.432;8.680;2023-04-25T02:08:34;8.60;99.90
10417;DHT22;62605;49.432;8.680;2023-04-25T02:11:02;8.60;99.90
10417;DHT22;62605;49.432;8.680;2023-04-25T02:13:31;8.60;99.90
10417;DHT22;62605;49.432;8.680;2023-04-25T02:15:58;8.60;99.90
10417;DHT22;62605;49.432;8.680;2023-04-25T02:18:25;8.60;99.90
10417;DHT22;62605;49.432;8.680;2023-04-25T02:20:53;8.60;99.90
10417;DHT22;62605;49.432;8.680;2023-04-25T02:23:20;8.60;99.90
10417;DHT22;62605;49.432;8.680;2023-04-25T02:25:47;8.50;99.90
10417;DHT22;62605;49.432;8.680;2023-04-25T02:28:15;8.60;99.90
10417;DHT22;62605;49.432;8.680;2023-04-25T02:30:44;8.50;99.90
10417;DHT22;62605;49.432;8.680;2023-04-25T02:33:11;8.50;99.90
10417;DHT22;62605;49.432;8.680;2023-04-25T02:35:37;8.40;99.90
10417;DHT22;62605;49.432;8.680;2023-04-25T02:38:04;8.50;99.90
10417;DHT22;62605;49.432;8.680;2023-04-25T02:40:31;8.40;99.90
10417;DHT22;62605;49.432;8.680;2023-04-25T02:42:58;8.40;99.90
10417;DHT22;62605;49.432;8.680;2023-04-25T02:45:25;8.40;99.90
10417;DHT22;62605;49.432;8.680;2023-04-25T02:47:54;8.40;99.90
10417;DHT22;62605;49.432;8.680;2023-04-25T02:50:21;8.30;99.90
10417;DHT22;62605;49.432;8.680;2023-04-25T02:52:48;8.40;99.90
10417;DHT22;62605;49.432;8.680;2023-04-25T02:55:15;8.30;99.90
10417;DHT22;62605;49.432;8.680;2023-04-25T02:57:42;8.30;99.90
10417;DHT22;62605;49.432;8.680;2023-04-25T03:00:10;8.30;99.90
10417;DHT22;62605;49.432;8.680;2023-04-25T03:02:39;8.30;99.90
10417;DHT22;62605;49.432;8.680;2023-04-25T03:05:08;8.20;99.90
10417;DHT22;62605;49.432;8.680;2023-04-25T03:07:35;8.30;99.90
10417;DHT22;62605;49.432;8.680;2023-04-25T03:10:05;8.20;99.90
10417;DHT22;62605;49.432;8.680;2023-04-25T03:12:32;8.30;99.90
10417;DHT22;62605;49.432;8.680;2023-04-25T03:14:59;8.20;99.90
10417;DHT22;62605;49.432;8.680;2023-04-25T03:17:26;8.20;99.90
10417;DHT22;62605;49.432;8.680;2023-04-25T03:19:53;8.20;99.90
10417;DHT22;62605;49.432;8.680;2023-04-25T03:22:22;8.20;99.90
10417;DHT22;62605;49.432;8.680;2023-04-25T03:24:49;8.20;99.90
10417;DHT22;62605;49.432;8.680;2023-04-25T03:27:16;8.20;99.90
10417;DHT22;62605;49.432;8.680;2023-04-25T03:29:44;8.20;99.90
10417;DHT22;62605;49.432;8.680;2023-04-25T03:32:10;8.20;99.90
10417;DHT22;62605;49.432;8.680;2023-04-25T03:34:37;8.20;99.90
10417;DHT22;62605;49.432;8.680;2023-04-25T03:37:04;8.20;99.90
10417;DHT22;62605;49.432;8.680;2023-04-25T03:39:33;8.20;99.90
10417;DHT22;62605;49.432;8.680;2023-04-25T03:42:00;8.20;99.90
10417;DHT22;62605;49.432;8.680;2023-04-25T03:44:28;8.20;99.90
10417;DHT22;62605;49.432;8.680;2023-04-25T03:46:55;8.20;99.90
10417;DHT22;62605;49.432;8.680;2023-04-25T03:49:22;8.20;99.90
10417;DHT22;62605;49.432;8.680;2023-04-25T03:51:49;8.20;99.90
10417;DHT22;62605;49.432;8.680;2023-04-25T03:54:16;8.20;99.90
10417;DHT22;62605;49.432;8.680;2023-04-25T03:56:45;8.30;99.90
10417;DHT22;62605;49.432;8.680;2023-04-25T03:59:11;8.30;99.90
10417;DHT22;62605;49.432;8.680;2023-04-25T04:01:38;8.30;99.90
10417;DHT22;62605;49.432;8.680;2023-04-25T04:04:05;8.30;99.90
10417;DHT22;62605;49.432;8.680;2023-04-25T04:06:32;8.30;99.90
10417;DHT22;62605;49.432;8.680;2023-04-25T04:09:00;8.20;99.90
10417;DHT22;62605;49.432;8.680;2023-04-25T04:11:27;8.20;99.90
10417;DHT22;62605;49.432;8.680;2023-04-25T04:13:55;8.20;99.90
10417;DHT22;62605;49.432;8.680;2023-04-25T04:16:22;8.20;99.90
10417;DHT22;62605;49.432;8.680;2023-04-25T04:18:50;8.20;99.90
10417;DHT22;62605;49.432;8.680;2023-04-25T04:21:17;8.20;99.90
10417;DHT22;62605;49.432;8.680;2023-04-25T04:23:43;8.10;99.90
10417;DHT22;62605;49.432;8.680;2023-04-25T04:26:12;8.20;99.90
10417;DHT22;62605;49.432;8.680;2023-04-25T04:28:40;8.20;99.90
10417;DHT22;62605;49.432;8.680;2023-04-25T04:31:09;8.30;99.90
10417;DHT22;62605;49.432;8.680;2023-04-25T04:33:36;8.20;99.90
10417;DHT22;62605;49.432;8.680;2023-04-25T04:36:03;8.20;99.90
10417;DHT22;62605;49.432;8.680;2023-04-25T04:38:33;8.20;99.90
10417;DHT22;62605;49.432;8.680;2023-04-25T04:41:00;8.20;99.90
10417;DHT22;62605;49.432;8.680;2023-04-25T04:43:27;8.20;99.90
10417;DHT22;62605;49.432;8.680;2023-04-25T04:45:55;8.20;99.90
10417;DHT22;62605;49.432;8.680;2023-04-25T04:48:24;8.20;99.90
10417;DHT22;62605;49.432;8.680;2023-04-25T04:50:51;8.20;99.90
10417;DHT22;62605;49.432;8.680;2023-04-25T04:53:18;8.20;99.90
10417;DHT22;62605;49.432;8.680;2023-04-25T04:55:45;8.20;99.90
10417;DHT22;62605;49.432;8.680;2023-04-25T04:58:12;8.20;99.90
10417;DHT22;62605;49.432;8.680;2023-04-25T05:00:39;8.30;99.90
10417;DHT22;62605;49.432;8.680;2023-04-25T05:03:06;8.30;99.90
10417;DHT22;62605;49.432;8.680;2023-04-25T05:05:35;8.30;99.90
10417;DHT22;62605;49.432;8.680;2023-04-25T05:08:05;8.30;99.90
10417;DHT22;62605;49.432;8.680;2023-04-25T05:10:32;8.30;99.90
10417;DHT22;62605;49.432;8.680;2023-04-25T05:12:59;8.20;99.90
10417;DHT22;62605;49.432;8.680;2023-04-25T05:15:26;8.30;99.90
10417;DHT22;62605;49.432;8.680;2023-04-25T05:17:55;8.30;99.90
10417;DHT22;62605;49.432;8.680;2023-04-25T05:20:22;8.30;99.90
10417;DHT22;62605;49.432;8.680;2023-04-25T05:22:50;8.30;99.90
10417;DHT22;62605;49.432;8.680;2023-04-25T05:25:17;8.30;99.90
10417;DHT22;62605;49.432;8.680;2023-04-25T05:27:45;8.20;99.90
10417;DHT22;62605;49.432;8.680;2023-04-25T05:30:12;8.20;99.90
10417;DHT22;62605;49.432;8.680;2023-04-25T05:32:39;8.20;99.90
10417;DHT22;62605;49.432;8.680;2023-04-25T05:35:07;8.20;99.90
10417;DHT22;62605;49.432;8.680;2023-04-25T05:37:35;8.30;99.90
10417;DHT22;62605;49.432;8.680;2023-04-25T05:40:05;8.30;99.90
10417;DHT22;62605;49.432;8.680;2023-04-25T05:42:32;8.30;99.90
10417;DHT22;62605;49.432;8.680;2023-04-25T05:44:59;8.30;99.90
10417;DHT22;62605;49.432;8.680;2023-04-25T05:47:27;8.40;99.90
10417;DHT22;62605;49.432;8.680;2023-04-25T05:49:54;8.50;99.90
10417;DHT22;62605;49.432;8.680;2023-04-25T05:52:21;8.50;99.90
10417;DHT22;62605;49.432;8.680;2023-04-25T05:54:48;8.50;99.90
10417;DHT22;62605;49.432;8.680;2023-04-25T05:57:22;8.60;99.90
10417;DHT22;62605;49.432;8.680;2023-04-25T05:59:49;8.70;99.90
10417;DHT22;62605;49.432;8.680;2023-04-25T06:02:17;8.80;99.90
10417;DHT22;62605;49.432;8.680;2023-04-25T06:04:44;8.90;99.90
10417;DHT22;62605;49.432;8.680;2023-04-25T06:07:11;9.00;99.90
10417;DHT22;62605;49.432;8.680;2023-04-25T06:09:38;8.90;99.90
10417;DHT22;62605;49.432;8.680;2023-04-25T06:12:06;8.90;99.90
10417;DHT22;62605;49.432;8.680;2023-04-25T06:14:35;8.90;99.90
10417;DHT22;62605;49.432;8.680;2023-04-25T06:17:02;8.90;99.90
10417;DHT22;62605;49.432;8.680;2023-04-25T06:19:32;8.90;99.90
10417;DHT22;62605;49.432;8.680;2023-04-25T06:21:59;8.90;99.90
10417;DHT22;62605;49.432;8.680;2023-04-25T06:24:27;8.90;99.90
10417;DHT22;62605;49.432;8.680;2023-04-25T06:26:55;8.90;99.90
10417;DHT22;62605;49.432;8.680;2023-04-25T06:29:22;8.80;99.90
10417;DHT22;62605;49.432;8.680;2023-04-25T06:31:51;8.80;99.90
10417;DHT22;62605;49.432;8.680;2023-04-25T06:34:18;8.80;99.90
10417;DHT22;62605;49.432;8.680;2023-04-25T06:36:46;8.80;99.90
10417;DHT22;62605;49.432;8.680;2023-04-25T06:39:13;8.90;99.90
10417;DHT22;62605;49.432;8.680;2023-04-25T06:41:40;9.00;99.90
10417;DHT22;62605;49.432;8.680;2023-04-25T06:44:07;9.10;99.90
10417;DHT22;62605;49.432;8.680;2023-04-25T06:46:34;9.10;99.90
10417;DHT22;62605;49.432;8.680;2023-04-25T06:49:04;9.00;99.90
10417;DHT22;62605;49.432;8.680;2023-04-25T06:51:31;8.90;99.90
10417;DHT22;62605;49.432;8.680;2023-04-25T06:53:59;8.90;99.90
10417;DHT22;62605;49.432;8.680;2023-04-25T06:56:26;8.90;99.90
10417;DHT22;62605;49.432;8.680;2023-04-25T06:58:55;8.90;99.90
10417;DHT22;62605;49.432;8.680;2023-04-25T07:01:22;9.00;99.90
10417;DHT22;62605;49.432;8.680;2023-04-25T07:03:49;9.20;99.90
10417;DHT22;62605;49.432;8.680;2023-04-25T07:06:19;9.20;99.90
10417;DHT22;62605;49.432;8.680;2023-04-25T07:08:46;9.00;99.90
10417;DHT22;62605;49.432;8.680;2023-04-25T07:11:13;9.10;99.90
10417;DHT22;62605;49.432;8.680;2023-04-25T07:13:40;9.00;99.90
10417;DHT22;62605;49.432;8.680;2023-04-25T07:16:08;9.10;99.90
10417;DHT22;62605;49.432;8.680;2023-04-25T07:18:35;9.00;99.90
10417;DHT22;62605;49.432;8.680;2023-04-25T07:21:03;9.20;99.90
10417;DHT22;62605;49.432;8.680;2023-04-25T07:23:32;9.30;99.90
10417;DHT22;62605;49.432;8.680;2023-04-25T07:25:59;9.40;99.90
10417;DHT22;62605;49.432;8.680;2023-04-25T07:28:26;9.60;99.90
10417;DHT22;62605;49.432;8.680;2023-04-25T07:30:53;9.70;99.90
10417;DHT22;62605;49.432;8.680;2023-04-25T07:33:21;9.60;99.90
10417;DHT22;62605;49.432;8.680;2023-04-25T07:35:49;9.70;99.90
10417;DHT22;62605;49.432;8.680;2023-04-25T07:38:17;9.70;99.90
10417;DHT22;62605;49.432;8.680;2023-04-25T07:40:47;9.60;99.90
10417;DHT22;62605;49.432;8.680;2023-04-25T07:43:15;9.50;99.90
10417;DHT22;62605;49.432;8.680;2023-04-25T07:45:44;9.80;99.90
10417;DHT22;62605;49.432;8.680;2023-04-25T07:48:11;9.90;99.90
10417;DHT22;62605;49.432;8.680;2023-04-25T07:50:39;9.90;99.90
10417;DHT22;62605;49.432;8.680;2023-04-25T07:53:06;9.90;99.90
10417;DHT22;62605;49.432;8.680;2023-04-25T07:55:34;9.80;99.90
10417;DHT22;62605;49.432;8.680;2023-04-25T07:58:07;9.80;99.90
10417;DHT22;62605;49.432;8.680;2023-04-25T08:00:35;9.70;99.90
10417;DHT22;62605;49.432;8.680;2023-04-25T08:03:02;9.50;99.90
10417;DHT22;62605;49.432;8.680;2023-04-25T08:05:30;9.30;99.90
10417;DHT22;62605;49.432;8.680;2023-04-25T08:07:56;9.40;99.90
10417;DHT22;62605;49.432;8.680;2023-04-25T08:10:24;9.40;99.90
10417;DHT22;62605;49.432;8.680;2023-04-25T08:12:52;9.20;99.90
10417;DHT22;62605;49.432;8.680;2023-04-25T08:15:27;9.00;99.90
10417;DHT22;62605;49.432;8.680;2023-04-25T08:17:54;9.20;99.90
10417;DHT22;62605;49.432;8.680;2023-04-25T08:20:22;9.10;99.90
10417;DHT22;62605;49.432;8.680;2023-04-25T08:22:50;9.30;99.90
10417;DHT22;62605;49.432;8.680;2023-04-25T08:25:18;9.10;99.90
10417;DHT22;62605;49.432;8.680;2023-04-25T08:27:45;9.10;99.90
10417;DHT22;62605;49.432;8.680;2023-04-25T08:30:14;9.30;99.90
10417;DHT22;62605;49.432;8.680;2023-04-25T08:32:43;9.40;99.90
10417;DHT22;62605;49.432;8.680;2023-04-25T08:35:10;9.50;99.90
10417;DHT22;62605;49.432;8.680;2023-04-25T08:37:38;9.40;99.90
10417;DHT22;62605;49.432;8.680;2023-04-25T08:40:07;9.50;99.90
10417;DHT22;62605;49.432;8.680;2023-04-25T08:42:37;9.70;99.90
10417;DHT22;62605;49.432;8.680;2023-04-25T08:45:06;9.70;99.90
10417;DHT22;62605;49.432;8.680;2023-04-25T08:47:34;10.00;99.90
10417;DHT22;62605;49.432;8.680;2023-04-25T08:50:05;10.00;99.90
10417;DHT22;62605;49.432;8.680;2023-04-25T08:52:36;9.90;99.90
10417;DHT22;62605;49.432;8.680;2023-04-25T08:55:06;9.80;99.90
10417;DHT22;62605;49.432;8.680;2023-04-25T08:57:34;9.80;99.90
10417;DHT22;62605;49.432;8.680;2023-04-25T09:00:02;10.20;99.90
10417;DHT22;62605;49.432;8.680;2023-04-25T09:02:31;10.20;99.90
10417;DHT22;62605;49.432;8.680;2023-04-25T09:04:58;10.30;99.90
10417;DHT22;62605;49.432;8.680;2023-04-25T09:07:27;10.30;99.90
10417;DHT22;62605;49.432;8.680;2023-04-25T09:09:54;10.30;99.90
10417;DHT22;62605;49.432;8.680;2023-04-25T09:12:25;10.30;99.90
10417;DHT22;62605;49.432;8.680;2023-04-25T09:15:06;10.20;99.90
10417;DHT22;62605;49.432;8.680;2023-04-25T09:17:34;10.20;99.90
10417;DHT22;62605;49.432;8.680;2023-04-25T09:20:07;10.40;99.90
10417;DHT22;62605;49.432;8.680;2023-04-25T09:22:37;10.40;99.90
10417;DHT22;62605;49.432;8.680;2023-04-25T09:25:08;10.60;99.90
10417;DHT22;62605;49.432;8.680;2023-04-25T09:27:36;10.50;99.90
10417;DHT22;62605;49.432;8.680;2023-04-25T09:30:04;10.80;99.90
10417;DHT22;62605;49.432;8.680;2023-04-25T09:32:33;10.80;99.90
10417;DHT22;62605;49.432;8.680;2023-04-25T09:35:00;10.80;99.90
10417;DHT22;62605;49.432;8.680;2023-04-25T09:37:30;11.00;99.90
10417;DHT22;62605;49.432;8.680;2023-04-25T09:40:03;11.30;99.90
10417;DHT22;62605;49.432;8.680;2023-04-25T09:42:32;11.30;99.90
10417;DHT22;62605;49.432;8.680;2023-04-25T09:45:02;10.90;99.90
10417;DHT22;62605;49.432;8.680;2023-04-25T09:47:30;10.90;99.90
10417;DHT22;62605;49.432;8.680;2023-04-25T09:49:57;10.80;99.90
10417;DHT22;62605;49.432;8.680;2023-04-25T09:52:25;10.70;99.90
10417;DHT22;62605;49.432;8.680;2023-04-25T09:54:52;10.70;99.90
10417;DHT22;62605;49.432;8.680;2023-04-25T09:57:22;10.80;99.90
10417;DHT22;62605;49.432;8.680;2023-04-25T09:59:50;11.00;99.90
10417;DHT22;62605;49.432;8.680;2023-04-25T10:02:20;11.20;99.90
10417;DHT22;62605;49.432;8.680;2023-04-25T10:04:49;11.50;99.90
10417;DHT22;62605;49.432;8.680;2023-04-25T10:07:19;11.40;99.90
10417;DHT22;62605;49.432;8.680;2023-04-25T10:09:48;11.40;99.90
10417;DHT22;62605;49.432;8.680;2023-04-25T10:12:16;11.70;99.90
10417;DHT22;62605;49.432;8.680;2023-04-25T10:14:46;11.40;99.90
10417;DHT22;62605;49.432;8.680;2023-04-25T10:17:14;11.00;99.90
10417;DHT22;62605;49.432;8.680;2023-04-25T10:19:43;10.70;99.90
10417;DHT22;62605;49.432;8.680;2023-04-25T10:22:16;10.80;99.90
10417;DHT22;62605;49.432;8.680;2023-04-25T10:24:46;11.20;99.90
10417;DHT22;62605;49.432;8.680;2023-04-25T10:27:13;10.70;99.90
10417;DHT22;62605;49.432;8.680;2023-04-25T10:29:41;11.00;99.90
10417;DHT22;62605;49.432;8.680;2023-04-25T10:32:11;11.20;99.90
10417;DHT22;62605;49.432;8.680;2023-04-25T10:34:39;11.40;99.90
10417;DHT22;62605;49.432;8.680;2023-04-25T10:37:09;11.80;99.90
10417;DHT22;62605;49.432;8.680;2023-04-25T10:39:39;11.90;99.90
10417;DHT22;62605;49.432;8.680;2023-04-25T10:42:07;11.70;99.90
10417;DHT22;62605;49.432;8.680;2023-04-25T10:44:34;11.40;99.90
10417;DHT22;62605;49.432;8.680;2023-04-25T10:47:03;11.70;99.90
10417;DHT22;62605;49.432;8.680;2023-04-25T10:49:35;11.90;99.90
10417;DHT22;62605;49.432;8.680;2023-04-25T10:52:17;12.10;99.90
10417;DHT22;62605;49.432;8.680;2023-04-25T10:54:47;11.90;99.90
10417;DHT22;62605;49.432;8.680;2023-04-25T10:57:32;12.10;99.90
10417;DHT22;62605;49.432;8.680;2023-04-25T11:00:07;12.00;99.90
10417;DHT22;62605;49.432;8.680;2023-04-25T11:02:44;11.30;99.90
10417;DHT22;62605;49.432;8.680;2023-04-25T11:05:20;11.00;99.90
10417;DHT22;62605;49.432;8.680;2023-04-25T11:07:53;10.80;99.90
10417;DHT22;62605;49.432;8.680;2023-04-25T11:10:25;10.90;99.90
10417;DHT22;62605;49.432;8.680;2023-04-25T11:12:53;11.40;99.90
10417;DHT22;62605;49.432;8.680;2023-04-25T11:15:21;11.70;99.90
10417;DHT22;62605;49.432;8.680;2023-04-25T11:17:48;11.60;99.90
10417;DHT22;62605;49.432;8.680;2023-04-25T11:20:17;12.10;99.90
10417;DHT22;62605;49.432;8.680;2023-04-25T11:22:45;12.00;99.90
10417;DHT22;62605;49.432;8.680;2023-04-25T11:25:14;11.70;99.90
10417;DHT22;62605;49.432;8.680;2023-04-25T11:27:49;11.60;99.90
10417;DHT22;62605;49.432;8.680;2023-04-25T11:30:17;11.60;99.90
10417;DHT22;62605;49.432;8.680;2023-04-25T11:32:44;11.50;99.90
10417;DHT22;62605;49.432;8.680;2023-04-25T11:35:12;11.20;99.90
10417;DHT22;62605;49.432;8.680;2023-04-25T11:37:41;11.20;99.90
10417;DHT22;62605;49.432;8.680;2023-04-25T11:40:09;11.20;99.90
10417;DHT22;62605;49.432;8.680;2023-04-25T11:42:38;11.30;99.90
10417;DHT22;62605;49.432;8.680;2023-04-25T11:45:06;11.30;99.90
10417;DHT22;62605;49.432;8.680;2023-04-25T11:47:35;11.10;99.90
10417;DHT22;62605;49.432;8.680;2023-04-25T11:50:03;11.50;99.90
10417;DHT22;62605;49.432;8.680;2023-04-25T11:52:38;11.50;99.90
10417;DHT22;62605;49.432;8.680;2023-04-25T11:55:10;11.40;99.90
10417;DHT22;62605;49.432;8.680;2023-04-25T11:57:40;11.40;99.90
10417;DHT22;62605;49.432;8.680;2023-04-25T12:00:10;11.00;99.90
10417;DHT22;62605;49.432;8.680;2023-04-25T12:02:40;10.90;99.90
10417;DHT22;62605;49.432;8.680;2023-04-25T12:05:08;11.20;99.90
10417;DHT22;62605;49.432;8.680;2023-04-25T12:07:36;11.30;99.90
10417;DHT22;62605;49.432;8.680;2023-04-25T12:10:09;11.40;99.90
10417;DHT22;62605;49.432;8.680;2023-04-25T12:12:38;11.70;99.90
10417;DHT22;62605;49.432;8.680;2023-04-25T12:15:13;11.60;99.90
10417;DHT22;62605;49.432;8.680;2023-04-25T12:17:42;11.70;99.90
10417;DHT22;62605;49.432;8.680;2023-04-25T12:20:14;11.80;99.90
10417;DHT22;62605;49.432;8.680;2023-04-25T12:22:42;12.00;99.90
10417;DHT22;62605;49.432;8.680;2023-04-25T12:25:14;12.00;99.90
10417;DHT22;62605;49.432;8.680;2023-04-25T12:28:10;11.90;1.00
10417;DHT22;62605;49.432;8.680;2023-04-25T12:30:53;11.30;99.90
10417;DHT22;62605;49.432;8.680;2023-04-25T12:33:20;11.30;1.00
10417;DHT22;62605;49.432;8.680;2023-04-25T12:35:47;11.30;99.90
10417;DHT22;62605;49.432;8.680;2023-04-25T12:38:21;11.40;99.90
10417;DHT22;62605;49.432;8.680;2023-04-25T12:40:49;11.20;1.00
10417;DHT22;62605;49.432;8.680;2023-04-25T12:43:16;10.90;99.90
10417;DHT22;62605;49.432;8.680;2023-04-25T12:45:44;10.80;99.90
10417;DHT22;62605;49.432;8.680;2023-04-25T12:48:11;11.00;99.90
10417;DHT22;62605;49.432;8.680;2023-04-25T12:50:38;11.40;99.90
10417;DHT22;62605;49.432;8.680;2023-04-25T12:53:05;11.90;99.90
10417;DHT22;62605;49.432;8.680;2023-04-25T12:55:32;11.80;99.90
10417;DHT22;62605;49.432;8.680;2023-04-25T12:58:00;12.10;99.90
10417;DHT22;62605;49.432;8.680;2023-04-25T13:00:27;12.10;99.90
10417;DHT22;62605;49.432;8.680;2023-04-25T13:02:54;12.40;99.90
10417;DHT22;62605;49.432;8.680;2023-04-25T13:05:21;12.40;99.90
10417;DHT22;62605;49.432;8.680;2023-04-25T13:07:49;12.40;1.00
10417;DHT22;62605;49.432;8.680;2023-04-25T13:10:16;12.40;1.00
10417;DHT22;62605;49.432;8.680;2023-04-25T13:12:43;12.10;1.00
10417;DHT22;62605;49.432;8.680;2023-04-25T13:15:12;11.80;99.90
10417;DHT22;62605;49.432;8.680;2023-04-25T13:17:41;11.70;1.00
10417;DHT22;62605;49.432;8.680;2023-04-25T13:20:09;11.80;1.00
10417;DHT22;62605;49.432;8.680;2023-04-25T13:22:37;11.80;1.00
10417;DHT22;62605;49.432;8.680;2023-04-25T13:25:06;12.40;1.00
10417;DHT22;62605;49.432;8.680;2023-04-25T13:27:35;12.40;1.00
10417;DHT22;62605;49.432;8.680;2023-04-25T13:30:04;12.30;1.00
10417;DHT22;62605;49.432;8.680;2023-04-25T13:32:34;12.20;1.00
10417;DHT22;62605;49.432;8.680;2023-04-25T13:35:03;12.00;1.00
10417;DHT22;62605;49.432;8.680;2023-04-25T13:37:30;12.00;1.00
10417;DHT22;62605;49.432;8.680;2023-04-25T13:39:59;12.10;1.00
10417;DHT22;62605;49.432;8.680;2023-04-25T13:42:30;12.30;1.00
10417;DHT22;62605;49.432;8.680;2023-04-25T13:44:57;12.70;1.00
10417;DHT22;62605;49.432;8.680;2023-04-25T13:47:25;12.30;1.00
10417;DHT22;62605;49.432;8.680;2023-04-25T13:49:53;12.10;1.00
10417;DHT22;62605;49.432;8.680;2023-04-25T13:52:21;11.70;1.00
10417;DHT22;62605;49.432;8.680;2023-04-25T13:54:49;12.20;1.00
10417;DHT22;62605;49.432;8.680;2023-04-25T13:57:17;12.90;1.00
10417;DHT22;62605;49.432;8.680;2023-04-25T13:59:44;13.60;1.00
10417;DHT22;62605;49.432;8.680;2023-04-25T14:02:11;13.30;1.00
10417;DHT22;62605;49.432;8.680;2023-04-25T14:04:38;12.60;1.00
10417;DHT22;62605;49.432;8.680;2023-04-25T14:07:07;12.60;1.00
10417;DHT22;62605;49.432;8.680;2023-04-25T14:09:34;12.30;1.00
10417;DHT22;62605;49.432;8.680;2023-04-25T14:12:01;12.20;1.00
10417;DHT22;62605;49.432;8.680;2023-04-25T14:14:29;12.10;1.00
10417;DHT22;62605;49.432;8.680;2023-04-25T14:16:56;12.00;1.00
10417;DHT22;62605;49.432;8.680;2023-04-25T14:19:24;12.00;1.00
10417;DHT22;62605;49.432;8.680;2023-04-25T14:21:51;11.90;1.00
10417;DHT22;62605;49.432;8.680;2023-04-25T14:24:19;12.20;1.00
10417;DHT22;62605;49.432;8.680;2023-04-25T14:26:46;12.00;1.00
10417;DHT22;62605;49.432;8.680;2023-04-25T14:29:13;11.90;1.00
10417;DHT22;62605;49.432;8.680;2023-04-25T14:31:40;11.90;1.00
10417;DHT22;62605;49.432;8.680;2023-04-25T14:34:08;12.00;1.00
10417;DHT22;62605;49.432;8.680;2023-04-25T14:36:36;12.20;1.00
10417;DHT22;62605;49.432;8.680;2023-04-25T14:39:03;12.10;1.00
10417;DHT22;62605;49.432;8.680;2023-04-25T14:41:32;11.80;1.00
10417;DHT22;62605;49.432;8.680;2023-04-25T14:43:59;11.80;1.00
10417;DHT22;62605;49.432;8.680;2023-04-25T14:46:27;11.70;1.00
10417;DHT22;62605;49.432;8.680;2023-04-25T14:48:54;11.70;1.00
10417;DHT22;62605;49.432;8.680;2023-04-25T14:51:22;11.80;1.00
10417;DHT22;62605;49.432;8.680;2023-04-25T14:53:49;11.70;1.00
10417;DHT22;62605;49.432;8.680;2023-04-25T14:56:16;11.50;1.00
10417;DHT22;62605;49.432;8.680;2023-04-25T14:58:45;11.40;1.00
10417;DHT22;62605;49.432;8.680;2023-04-25T15:01:13;11.40;1.00
10417;DHT22;62605;49.432;8.680;2023-04-25T15:03:41;11.50;1.00
10417;DHT22;62605;49.432;8.680;2023-04-25T15:06:08;11.50;1.00
10417;DHT22;62605;49.432;8.680;2023-04-25T15:08:35;11.40;1.00
10417;DHT22;62605;49.432;8.680;2023-04-25T15:11:02;11.50;1.00
10417;DHT22;62605;49.432;8.680;2023-04-25T15:13:29;11.40;1.00
10417;DHT22;62605;49.432;8.680;2023-04-25T15:15:59;11.40;1.00
10417;DHT22;62605;49.432;8.680;2023-04-25T15:18:26;11.50;1.00
10417;DHT22;62605;49.432;8.680;2023-04-25T15:20:53;11.70;1.00
10417;DHT22;62605;49.432;8.680;2023-04-25T15:23:21;11.70;1.00
10417;DHT22;62605;49.432;8.680;2023-04-25T15:25:50;11.60;1.00
10417;DHT22;62605;49.432;8.680;2023-04-25T15:28:17;11.80;99.90
10417;DHT22;62605;49.432;8.680;2023-04-25T15:30:47;12.00;99.90
10417;DHT22;62605;49.432;8.680;2023-04-25T15:33:16;12.00;99.90
10417;DHT22;62605;49.432;8.680;2023-04-25T15:35:43;12.20;99.90
10417;DHT22;62605;49.432;8.680;2023-04-25T15:38:09;12.70;99.90
10417;DHT22;62605;49.432;8.680;2023-04-25T15:40:37;13.00;99.90
10417;DHT22;62605;49.432;8.680;2023-04-25T15:43:04;12.50;99.90
10417;DHT22;62605;49.432;8.680;2023-04-25T15:45:32;12.20;99.90
10417;DHT22;62605;49.432;8.680;2023-04-25T15:48:00;12.00;99.90